Time;durP1;ratioP1;P1;durP2;ratioP2;P2;SDS_P1;SDS_P2;PMS_P1;PMS_P2;Temp;Humidity;BMP_temperature;BMP_pressure;BME280_temperature;BME280_humidity;BME280_pressure;Samples;Min_cycle;Max_cycle;Signal;HPM_P1;HPM_P2
2021/07/06 00:01:05;;;;;;;;;6.00;3.25;;;;;21.02;68.92;100243.69;5080852;27;45275;-80
2021/07/06 00:03:30;;;;;;;;;2.00;2.00;;;;;21.04;68.87;100235.53;5080736;27;46293;-79
2021/07/06 00:05:56;;;;;;;;;2.50;2.00;;;;;21.05;68.29;100231.91;5080596;27;45437;-79
2021/07/06 00:08:21;;;;;;;;;2.00;2.00;;;;;21.04;68.20;100216.84;5081354;27;45260;-78
2021/07/06 00:10:47;;;;;;;;;2.00;2.00;;;;;21.07;68.14;100229.09;5080494;27;45365;-79
2021/07/06 00:13:13;;;;;;;;;2.75;2.00;;;;;21.05;67.82;100217.69;5080686;27;46276;-78
2021/07/06 00:15:38;;;;;;;;;2.00;2.00;;;;;21.05;67.32;100221.22;5081111;27;45346;-78
2021/07/06 00:18:04;;;;;;;;;2.00;1.00;;;;;21.07;67.50;100224.59;5096299;27;45448;-78
2021/07/06 00:20:30;;;;;;;;;1.00;1.00;;;;;21.09;67.34;100209.28;5095829;27;45429;-78
2021/07/06 00:22:57;;;;;;;;;1.75;1.25;;;;;21.07;66.56;100202.38;5085443;27;46498;-78
2021/07/06 00:25:23;;;;;;;;;3.00;1.00;;;;;21.07;66.99;100200.56;5080244;27;45148;-77
2021/07/06 00:27:49;;;;;;;;;2.50;2.00;;;;;21.12;66.75;100206.34;5080813;27;45243;-79
2021/07/06 00:30:15;;;;;;;;;3.50;2.00;;;;;21.09;67.31;100190.56;5099853;27;45469;-80
2021/07/06 00:32:40;;;;;;;;;2.50;2.00;;;;;21.09;66.67;100190.56;5100813;27;45382;-80
2021/07/06 00:35:07;;;;;;;;;0.75;0.75;;;;;21.11;66.83;100204.63;5100429;27;45455;-80
2021/07/06 00:37:32;;;;;;;;;4.00;2.50;;;;;21.12;66.08;100203.66;5093349;27;45377;-80
2021/07/06 00:39:58;;;;;;;;;2.50;2.00;;;;;21.12;66.55;100202.81;5080240;27;45287;-81
2021/07/06 00:42:24;;;;;;;;;1.00;1.00;;;;;21.10;66.58;100184.25;5080103;27;45439;-76
2021/07/06 00:44:49;;;;;;;;;2.25;2.25;;;;;21.14;66.38;100185.69;5086190;27;45360;-76
2021/07/06 00:47:15;;;;;;;;;1.25;1.25;;;;;21.13;66.16;100194.69;5089213;27;45298;-77
2021/07/06 00:49:40;;;;;;;;;2.25;1.00;;;;;21.12;66.60;100203.66;5079856;27;45359;-76
2021/07/06 00:52:06;;;;;;;;;2.00;2.00;;;;;21.18;66.23;100209.47;5080261;27;45451;-76
2021/07/06 00:54:31;;;;;;;;;2.75;2.75;;;;;21.15;66.25;100186.53;5080012;27;45465;-76
2021/07/06 00:56:58;;;;;;;;;1.00;1.00;;;;;21.14;66.34;100191.03;5080123;28;45480;-78
2021/07/06 00:59:24;;;;;;;;;1.50;1.50;;;;;21.16;66.43;100195.41;5080199;27;45459;-77
2021/07/06 01:01:50;;;;;;;;;1.00;1.00;;;;;21.12;66.09;100203.66;5079825;27;45282;-76
2021/07/06 01:04:16;;;;;;;;;1.25;1.25;;;;;21.12;65.67;100192.97;5080127;27;45408;-75
2021/07/06 01:06:42;;;;;;;;;1.00;1.00;;;;;21.16;66.16;100204.25;5079539;27;45418;-75
2021/07/06 01:09:08;;;;;;;;;0.00;0.00;;;;;21.10;65.82;100194.09;5080097;27;45377;-76
2021/07/06 01:11:36;;;;;;;;;1.00;1.00;;;;;21.12;65.19;100192.97;5079838;27;45502;-77
2021/07/06 01:14:03;;;;;;;;;0.00;0.00;;;;;21.12;65.54;100202.81;5080139;27;45476;-77
2021/07/06 01:16:28;;;;;;;;;1.00;1.00;;;;;21.11;65.55;100215.31;5079993;28;45256;-78
2021/07/06 01:18:54;;;;;;;;;3.00;1.25;;;;;21.08;65.08;100204.06;5093383;27;45257;-78
2021/07/06 01:21:19;;;;;;;;;0.00;0.00;;;;;21.06;65.44;100225.59;5080690;27;45392;-77
2021/07/06 01:23:45;;;;;;;;;1.00;1.00;;;;;21.08;65.14;100245.00;5084423;27;46633;-78
2021/07/06 01:26:10;;;;;;;;;0.75;0.75;;;;;21.07;65.29;100231.75;5090409;27;45539;-76
2021/07/06 01:28:38;;;;;;;;;0.75;0.75;;;;;21.07;65.57;100234.44;5082199;27;45459;-80
2021/07/06 01:31:04;;;;;;;;;0.00;0.00;;;;;21.10;64.96;100234.16;5079703;27;46298;-78
2021/07/06 01:33:32;;;;;;;;;0.00;0.00;;;;;21.04;64.71;100227.53;5079333;27;45432;-76
2021/07/06 01:36:04;;;;;;;;;0.00;0.00;;;;;21.03;64.20;100255.22;5079878;27;45238;-77
2021/07/06 01:38:35;;;;;;;;;0.00;0.00;;;;;20.97;64.46;100218.31;5082995;27;45399;-77
2021/07/06 01:41:02;;;;;;;;;0.00;0.00;;;;;20.99;64.45;100214.53;5083158;27;45378;-77
2021/07/06 01:43:28;;;;;;;;;1.00;1.00;;;;;20.95;64.89;100220.28;5079174;27;45513;-77
2021/07/06 01:45:54;;;;;;;;;0.00;0.00;;;;;20.96;65.06;100230.00;5080325;27;45470;-78
2021/07/06 01:48:19;;;;;;;;;0.00;0.00;;;;;20.96;64.58;100230.84;5079408;27;45509;-78
2021/07/06 01:50:44;;;;;;;;;0.00;0.00;;;;;20.87;64.36;100234.28;5083054;27;46229;-78
2021/07/06 01:53:13;;;;;;;;;0.00;0.00;;;;;20.86;64.58;100238.78;5084979;27;45495;-78
2021/07/06 01:55:42;;;;;;;;;1.50;0.00;;;;;20.85;64.36;100239.75;5079581;27;45278;-79
2021/07/06 01:58:10;;;;;;;;;0.00;0.00;;;;;20.84;64.51;100267.44;5079373;27;45420;-80
2021/07/06 02:00:40;;;;;;;;;0.00;0.00;;;;;20.76;64.37;100272.59;5079336;27;45262;-77
2021/07/06 02:03:06;;;;;;;;;0.00;0.00;;;;;20.73;64.42;100297.72;5086155;27;45176;-78
2021/07/06 02:05:38;;;;;;;;;1.00;0.50;;;;;20.69;64.57;100294.44;5099563;27;45380;-78
2021/07/06 02:08:08;;;;;;;;;0.00;0.00;;;;;20.69;64.56;100289.13;5091089;27;45430;-78
2021/07/06 02:10:35;;;;;;;;;0.75;0.75;;;;;20.69;64.99;100294.44;5096358;27;45584;-78
2021/07/06 02:13:01;;;;;;;;;0.00;0.00;;;;;20.66;65.01;100301.88;5084529;27;45259;-79
2021/07/06 02:15:29;;;;;;;;;0.25;0.25;;;;;20.64;65.18;100306.50;5088377;27;45291;-81
2021/07/06 02:17:54;;;;;;;;;1.00;1.00;;;;;20.63;65.15;100313.66;5099674;27;45441;-81
2021/07/06 02:20:21;;;;;;;;;0.75;0.75;;;;;20.64;64.33;100311.84;5102860;27;45261;-81
2021/07/06 02:22:48;;;;;;;;;1.00;0.00;;;;;20.63;64.81;100323.50;5090948;27;45361;-80
2021/07/06 02:25:16;;;;;;;;;2.00;1.00;;;;;20.58;64.90;100329.22;5082530;27;45332;-80
2021/07/06 02:27:45;;;;;;;;;0.00;0.00;;;;;20.55;64.81;100338.31;5082484;27;45447;-80
2021/07/06 02:30:12;;;;;;;;;1.00;1.00;;;;;20.53;64.69;100334.09;5082578;27;45504;-80
2021/07/06 02:32:38;;;;;;;;;2.50;0.00;;;;;20.50;64.84;100337.00;5082518;27;45388;-80
2021/07/06 02:35:09;;;;;;;;;0.00;0.00;;;;;20.46;64.97;100317.72;5082213;27;45440;-80
2021/07/06 02:37:36;;;;;;;;;0.00;0.00;;;;;20.45;64.97;100314.22;5084992;27;46636;-80
2021/07/06 02:40:03;;;;;;;;;1.00;0.50;;;;;20.45;65.06;100310.69;5094203;27;45506;-80
2021/07/06 02:42:29;;;;;;;;;1.00;0.00;;;;;20.38;64.99;100305.00;5097684;27;45396;-79
2021/07/06 02:44:54;;;;;;;;;0.00;0.00;;;;;20.36;65.32;100296.28;5094906;27;45390;-80
2021/07/06 02:47:20;;;;;;;;;0.75;0.75;;;;;20.33;65.43;100307.19;5082249;27;45326;-80
2021/07/06 02:49:45;;;;;;;;;0.00;0.00;;;;;20.31;65.52;100303.81;5081957;27;45244;-80
2021/07/06 02:52:10;;;;;;;;;0.00;0.00;;;;;20.31;65.37;100318.00;5082099;27;45372;-80
2021/07/06 02:54:36;;;;;;;;;0.00;0.00;;;;;20.24;65.46;100317.66;5085558;27;45707;-80
2021/07/06 02:57:04;;;;;;;;;0.00;0.00;;;;;20.26;65.74;100303.34;5090288;27;45558;-75
2021/07/06 02:59:29;;;;;;;;;1.00;1.00;;;;;20.26;65.54;100314.88;5090389;27;45576;-76
2021/07/06 03:01:55;;;;;;;;;1.00;1.00;;;;;20.23;65.56;100318.63;5101923;27;45264;-78
2021/07/06 03:04:20;;;;;;;;;1.00;1.00;;;;;20.22;65.52;100327.59;5087189;27;45257;-78
2021/07/06 03:06:47;;;;;;;;;2.00;2.00;;;;;20.15;65.25;100317.56;5081762;27;45535;-79
2021/07/06 03:09:12;;;;;;;;;1.00;1.00;;;;;20.16;65.36;100338.78;5090281;27;46990;-77
2021/07/06 03:11:38;;;;;;;;;0.50;0.50;;;;;20.18;65.78;100344.84;5100573;27;45352;-77
2021/07/06 03:14:03;;;;;;;;;0.00;0.00;;;;;20.10;65.57;100320.59;5102221;27;45361;-77
2021/07/06 03:16:29;;;;;;;;;0.00;0.00;;;;;20.09;65.35;100321.53;5082512;27;45534;-77
2021/07/06 03:18:54;;;;;;;;;1.00;1.00;;;;;20.07;65.12;100324.34;5081499;27;45385;-81
2021/07/06 03:21:19;;;;;;;;;1.75;0.25;;;;;20.02;65.11;100319.38;5081371;27;45301;-84
2021/07/06 03:23:45;;;;;;;;;0.50;0.00;;;;;20.02;65.28;100322.03;5082184;27;45448;-84
2021/07/06 03:26:10;;;;;;;;;0.00;0.00;;;;;19.99;65.29;100326.75;5081347;27;45439;-84
2021/07/06 03:28:38;;;;;;;;;1.50;1.50;;;;;19.98;65.26;100328.56;5086993;27;47096;-84
2021/07/06 03:31:03;;;;;;;;;2.00;0.00;;;;;19.95;65.08;100322.66;5101668;27;45299;-84
2021/07/06 03:33:29;;;;;;;;;1.00;1.00;;;;;19.96;65.05;100327.84;5100559;27;45537;-83
2021/07/06 03:35:54;;;;;;;;;0.00;0.00;;;;;19.94;65.06;100315.63;5099911;27;45944;-76
2021/07/06 03:38:19;;;;;;;;;1.00;1.00;;;;;19.91;64.86;100319.38;5090982;27;45267;-77
2021/07/06 03:40:46;;;;;;;;;2.00;0.00;;;;;19.86;64.72;100309.06;5099015;27;45394;-77
2021/07/06 03:43:11;;;;;;;;;1.00;1.00;;;;;19.85;64.58;100307.38;5101822;27;45319;-77
2021/07/06 03:45:37;;;;;;;;;0.75;0.00;;;;;19.86;64.46;100308.22;5087749;27;45529;-80
2021/07/06 03:48:02;;;;;;;;;0.00;0.00;;;;;19.81;64.85;100305.06;5081121;27;45380;-78
2021/07/06 03:50:28;;;;;;;;;0.00;0.00;;;;;19.79;63.74;100316.72;5095219;27;45356;-78
2021/07/06 03:52:58;;;;;;;;;1.00;1.00;;;;;19.82;63.04;100331.63;5096577;27;45251;-78
2021/07/06 03:55:27;;;;;;;;;2.00;1.00;;;;;19.77;63.77;100320.47;5101099;27;45483;-80
2021/07/06 03:57:54;;;;;;;;;2.00;1.00;;;;;19.77;62.66;100323.16;5101259;27;45548;-79
2021/07/06 04:00:23;;;;;;;;;1.00;1.00;;;;;19.70;62.78;100320.13;5087532;27;45388;-79
2021/07/06 04:02:48;;;;;;;;;2.50;1.00;;;;;19.64;62.02;100323.25;5097454;27;45243;-79
2021/07/06 04:05:15;;;;;;;;;4.75;1.00;;;;;19.60;61.94;100330.66;5101129;27;45452;-80
2021/07/06 04:07:42;;;;;;;;;2.75;1.00;;;;;19.51;61.11;100334.88;5099003;27;47097;-80
2021/07/06 04:10:10;;;;;;;;;0.00;0.00;;;;;19.43;61.69;100329.31;5089477;27;45608;-79
2021/07/06 04:12:37;;;;;;;;;1.25;1.00;;;;;19.41;62.13;100337.41;5080710;27;45380;-81
2021/07/06 04:15:08;;;;;;;;;0.50;0.50;;;;;19.40;62.17;100345.53;5080991;27;45225;-81
2021/07/06 04:17:33;;;;;;;;;0.00;0.00;;;;;19.37;62.26;100351.94;5080697;27;46285;-81
2021/07/06 04:19:59;;;;;;;;;1.00;1.00;;;;;19.36;62.21;100360.88;5080818;27;45460;-83
2021/07/06 04:22:24;;;;;;;;;5.25;1.00;;;;;19.37;61.93;100367.06;5080660;27;45483;-83
2021/07/06 04:24:50;;;;;;;;;1.00;1.00;;;;;19.32;62.68;100360.28;5080848;27;45318;-79
2021/07/06 04:27:15;;;;;;;;;0.50;0.50;;;;;19.29;62.78;100365.84;5080441;27;45588;-79
2021/07/06 04:29:40;;;;;;;;;1.00;1.00;;;;;19.26;62.01;100360.75;5087593;27;45317;-80
2021/07/06 04:32:06;;;;;;;;;2.00;0.00;;;;;19.23;62.21;100372.50;5101045;27;45423;-81
2021/07/06 04:34:32;;;;;;;;;1.00;0.00;;;;;19.18;61.53;100360.50;5100668;27;45440;-85
2021/07/06 04:36:57;;;;;;;;;1.25;1.00;;;;;19.16;61.55;100371.22;5089600;27;45256;-82
2021/07/06 04:39:23;;;;;;;;;1.00;0.25;;;;;19.13;61.51;100368.81;5085680;27;45448;-79
2021/07/06 04:41:48;;;;;;;;;0.25;0.25;;;;;19.10;61.36;100385.00;5100269;27;45278;-92
2021/07/06 04:44:14;;;;;;;;;1.00;0.25;;;;;19.08;61.16;100386.94;5097560;27;45224;-90
2021/07/06 04:46:40;;;;;;;;;0.00;0.00;;;;;19.03;61.12;100379.31;5088614;27;47146;-92
2021/07/06 04:49:05;;;;;;;;;2.00;0.25;;;;;19.01;61.95;100381.22;5095032;27;45292;-93
2021/07/06 04:51:32;;;;;;;;;1.00;0.00;;;;;19.04;61.42;100390.81;5099349;27;45581;-94
2021/07/06 04:53:57;;;;;;;;;1.25;0.00;;;;;19.00;61.11;100390.16;5088240;27;47052;-94
2021/07/06 04:56:25;;;;;;;;;1.25;0.50;;;;;18.97;61.80;100388.59;5105289;27;46861;-89
2021/07/06 04:58:50;;;;;;;;;3.00;1.00;;;;;19.01;62.02;100399.88;5080160;27;45297;-89
2021/07/06 05:01:16;;;;;;;;;2.00;1.00;;;;;18.96;61.88;100389.56;5086269;27;45264;-86
2021/07/06 05:03:42;;;;;;;;;1.00;1.00;;;;;18.99;61.92;100407.09;5099804;27;45436;-84
2021/07/06 05:06:07;;;;;;;;;0.25;0.25;;;;;19.01;61.38;100397.22;5080061;27;45720;-88
2021/07/06 05:08:34;;;;;;;;;0.00;0.00;;;;;19.01;61.45;100391.88;5080046;27;45381;-87
2021/07/06 05:11:00;;;;;;;;;1.00;0.25;;;;;19.01;61.80;100405.19;5080111;27;45269;-87
2021/07/06 05:13:26;;;;;;;;;0.25;0.00;;;;;19.01;61.12;100400.69;5079884;27;45277;-87
2021/07/06 05:15:52;;;;;;;;;1.00;1.00;;;;;19.03;61.20;100400.59;5085693;27;46174;-87
2021/07/06 05:18:17;;;;;;;;;2.50;1.25;;;;;19.05;59.79;100430.63;5094276;27;45396;-93
2021/07/06 05:20:42;;;;;;;;;1.00;1.00;;;;;19.04;61.74;100415.59;5096099;27;45430;-88
2021/07/06 05:23:08;;;;;;;;;2.50;1.00;;;;;19.07;60.91;100409.19;5087143;27;45404;-88
2021/07/06 05:25:33;;;;;;;;;0.75;0.75;;;;;19.08;59.50;100410.91;5092934;27;45377;-88
2021/07/06 05:27:59;;;;;;;;;0.50;0.50;;;;;19.06;59.35;100403.00;5084975;27;45476;-87
2021/07/06 05:30:24;;;;;;;;;1.00;1.00;;;;;19.06;58.71;100419.00;5078750;28;45691;-85
2021/07/06 05:32:50;;;;;;;;;1.00;1.00;;;;;19.01;58.18;100414.00;5083619;27;46911;-81
2021/07/06 05:35:15;;;;;;;;;1.75;0.25;;;;;18.97;59.03;100412.56;5082689;27;46082;-87
2021/07/06 05:37:41;;;;;;;;;0.75;0.75;;;;;18.93;59.23;100407.56;5096608;27;46195;-86
2021/07/06 05:40:09;;;;;;;;;3.25;1.00;;;;;18.94;59.29;100419.94;5086780;27;45320;-81
2021/07/06 05:42:35;;;;;;;;;3.50;1.50;;;;;18.95;58.16;100422.47;5084559;27;45298;-81
2021/07/06 05:45:01;;;;;;;;;1.25;0.00;;;;;18.89;59.70;100429.09;5088319;27;46503;-82
2021/07/06 05:47:27;;;;;;;;;2.25;1.00;;;;;18.90;59.42;100435.28;5089117;27;45773;-82
2021/07/06 05:49:52;;;;;;;;;1.50;1.25;;;;;18.92;59.58;100428.00;5080499;27;45342;-82
2021/07/06 05:52:18;;;;;;;;;2.50;1.00;;;;;18.91;59.03;100444.97;5078574;27;45455;-82
2021/07/06 05:54:43;;;;;;;;;1.00;1.00;;;;;18.89;59.21;100438.88;5088373;27;45380;-82
2021/07/06 05:57:09;;;;;;;;;1.50;1.50;;;;;18.91;60.19;100442.31;5089728;27;45763;-81
2021/07/06 05:59:34;;;;;;;;;2.50;0.75;;;;;18.92;59.89;100449.31;5083461;27;45683;-82
2021/07/06 06:01:59;;;;;;;;;4.25;2.00;;;;;18.95;59.24;100454.44;5082139;27;45303;-82
2021/07/06 06:04:26;;;;;;;;;1.25;1.00;;;;;18.91;59.61;100444.97;5081795;27;45435;-81
2021/07/06 06:06:52;;;;;;;;;1.00;1.00;;;;;18.98;60.29;100448.88;5094013;27;45640;-82
2021/07/06 06:09:17;;;;;;;;;1.00;1.00;;;;;19.05;60.47;100454.59;5082395;27;45384;-81
2021/07/06 06:11:43;;;;;;;;;2.75;1.00;;;;;19.10;60.69;100452.44;5088346;27;45547;-81
2021/07/06 06:14:08;;;;;;;;;1.75;1.75;;;;;19.20;60.14;100451.78;5094017;27;46257;-81
2021/07/06 06:16:34;;;;;;;;;2.25;2.25;;;;;19.28;60.21;100453.88;5091498;27;45454;-81
2021/07/06 06:19:00;;;;;;;;;1.50;1.00;;;;;19.33;60.04;100467.72;5085170;27;45230;-81
2021/07/06 06:21:26;;;;;;;;;5.25;1.75;;;;;19.36;59.34;100455.97;5102889;27;45308;-82
2021/07/06 06:23:53;;;;;;;;;2.00;0.50;;;;;19.42;59.52;100482.16;5100146;27;45365;-81
2021/07/06 06:26:19;;;;;;;;;1.00;1.00;;;;;19.41;59.06;100477.81;5088105;27;45534;-81
2021/07/06 06:28:44;;;;;;;;;1.00;1.00;;;;;19.41;58.54;100477.81;5082519;27;45318;-82
2021/07/06 06:31:10;;;;;;;;;3.00;0.00;;;;;19.44;59.41;100474.88;5082531;27;45477;-82
2021/07/06 06:33:36;;;;;;;;;0.00;0.00;;;;;19.44;58.93;100489.06;5084169;27;45920;-82
2021/07/06 06:36:01;;;;;;;;;5.50;2.00;;;;;19.44;58.13;100486.41;5100750;27;45424;-81
2021/07/06 06:38:27;;;;;;;;;2.50;2.00;;;;;19.48;58.42;100507.50;5102881;27;45204;-81
2021/07/06 06:40:52;;;;;;;;;4.50;2.00;;;;;19.40;57.35;100508.06;5100574;27;45802;-82
2021/07/06 06:43:17;;;;;;;;;1.50;1.00;;;;;19.33;57.72;100511.19;5093592;27;47474;-82
2021/07/06 06:45:45;;;;;;;;;1.00;1.00;;;;;19.22;58.20;100492.47;5083158;27;45404;-82
2021/07/06 06:48:10;;;;;;;;;1.25;1.25;;;;;19.18;58.74;100497.19;5085768;27;45367;-82
2021/07/06 06:50:36;;;;;;;;;3.75;1.25;;;;;19.18;59.72;100499.88;5091979;27;45595;-82
2021/07/06 06:53:01;;;;;;;;;0.75;0.75;;;;;19.24;59.21;100514.53;5081555;27;45500;-81
2021/07/06 06:55:27;;;;;;;;;0.50;0.50;;;;;19.24;59.61;100509.19;5083739;27;45312;-82
2021/07/06 06:57:52;;;;;;;;;4.00;1.00;;;;;19.30;59.12;100527.41;5085642;27;45274;-82
2021/07/06 07:00:18;;;;;;;;;1.75;0.75;;;;;19.32;58.97;100536.13;5081640;27;45491;-82
2021/07/06 07:02:44;;;;;;;;;4.00;1.00;;;;;19.28;59.12;100517.84;5082049;27;46275;-82
2021/07/06 07:05:11;;;;;;;;;2.75;2.75;;;;;19.31;58.43;100541.59;5093246;27;45496;-82
2021/07/06 07:07:37;;;;;;;;;2.00;2.00;;;;;19.28;59.04;100533.81;5102322;27;45249;-82
2021/07/06 07:10:05;;;;;;;;;1.00;1.00;;;;;19.27;58.76;100537.44;5095833;27;45460;-82
2021/07/06 07:12:30;;;;;;;;;2.75;2.75;;;;;19.32;58.92;100538.81;5095091;27;46385;-81
2021/07/06 07:14:56;;;;;;;;;2.75;1.75;;;;;19.33;58.47;100547.66;5100344;27;45319;-81
2021/07/06 07:17:22;;;;;;;;;3.50;2.25;;;;;19.33;58.18;100547.66;5099914;27;45745;-81
2021/07/06 07:19:48;;;;;;;;;2.50;2.00;;;;;19.32;58.47;100553.94;5080981;27;45333;-81
2021/07/06 07:22:14;;;;;;;;;2.00;1.00;;;;;19.29;59.88;100549.69;5082659;27;46387;-81
2021/07/06 07:24:39;;;;;;;;;1.50;1.50;;;;;19.31;58.41;100552.25;5087125;27;45695;-81
2021/07/06 07:27:05;;;;;;;;;1.00;1.00;;;;;19.29;60.12;100552.34;5098665;27;45343;-81
2021/07/06 07:29:31;;;;;;;;;3.50;3.00;;;;;19.33;58.95;100559.13;5097834;27;45416;-81
2021/07/06 07:31:56;;;;;;;;;4.00;2.00;;;;;19.37;58.90;100561.59;5080317;27;45481;-81
2021/07/06 07:34:22;;;;;;;;;3.00;1.00;;;;;19.36;58.77;100555.41;5091950;27;45503;-81
2021/07/06 07:36:47;;;;;;;;;2.50;2.50;;;;;19.41;58.26;100568.41;5081751;27;45440;-81
2021/07/06 07:39:13;;;;;;;;;5.00;2.00;;;;;19.38;58.98;100563.31;5079800;27;45560;-81
2021/07/06 07:41:38;;;;;;;;;3.00;2.00;;;;;19.40;58.29;100561.38;5093169;27;45669;-81
2021/07/06 07:44:04;;;;;;;;;3.75;2.25;;;;;19.37;58.44;100564.25;5097170;27;45275;-81
2021/07/06 07:46:30;;;;;;;;;5.50;4.00;;;;;19.38;58.22;100563.31;5080177;27;45260;-82
2021/07/06 07:48:56;;;;;;;;;1.75;1.00;;;;;19.41;58.33;100571.91;5080375;27;45331;-81
2021/07/06 07:51:21;;;;;;;;;3.50;2.00;;;;;19.45;58.51;100572.53;5079098;27;46158;-81
2021/07/06 07:53:47;;;;;;;;;5.00;2.25;;;;;19.48;58.28;100569.66;5092892;27;45427;-81
2021/07/06 07:56:13;;;;;;;;;2.25;2.25;;;;;19.49;58.00;100565.16;5082193;27;45404;-81
2021/07/06 07:58:39;;;;;;;;;3.25;3.25;;;;;19.55;58.29;100568.25;5079383;27;45487;-81
2021/07/06 08:01:04;;;;;;;;;5.00;3.00;;;;;19.62;58.75;100578.44;5079604;27;46437;-81
2021/07/06 08:03:30;;;;;;;;;6.00;2.00;;;;;19.66;58.36;100567.41;5079827;28;45357;-81
2021/07/06 08:05:58;;;;;;;;;2.00;2.00;;;;;19.71;58.25;100582.22;5079496;27;45387;-82
2021/07/06 08:08:24;;;;;;;;;2.75;2.75;;;;;19.75;57.51;100597.03;5079884;27;45715;-82
2021/07/06 08:10:52;;;;;;;;;2.00;2.00;;;;;19.70;57.01;100589.38;5088891;27;46933;-81
2021/07/06 08:13:25;;;;;;;;;6.25;2.50;;;;;19.69;57.51;100595.66;5092456;27;45397;-82
2021/07/06 08:15:51;;;;;;;;;3.00;2.00;;;;;19.67;58.08;100585.13;5078689;27;45513;-81
2021/07/06 08:18:17;;;;;;;;;2.75;1.25;;;;;19.72;57.49;100605.25;5082297;27;45747;-82
2021/07/06 08:20:44;;;;;;;;;3.00;2.00;;;;;19.74;55.94;100616.66;5086574;27;45455;-81
2021/07/06 08:23:09;;;;;;;;;4.00;3.00;;;;;19.67;56.75;100608.28;5081390;27;45665;-81
2021/07/06 08:25:35;;;;;;;;;1.25;1.25;;;;;19.66;57.44;100612.75;5079131;27;45331;-81
2021/07/06 08:28:00;;;;;;;;;3.00;1.50;;;;;19.66;56.73;100617.22;5078437;27;45620;-82
2021/07/06 08:30:26;;;;;;;;;1.50;1.00;;;;;19.61;58.00;100608.72;5079351;27;45327;-82
2021/07/06 08:32:51;;;;;;;;;2.25;2.25;;;;;19.62;57.26;100621.94;5079590;27;45407;-82
2021/07/06 08:35:17;;;;;;;;;4.00;3.00;;;;;19.64;56.71;100638.66;5078935;27;45543;-82
2021/07/06 08:37:42;;;;;;;;;4.25;2.00;;;;;19.64;56.05;100635.16;5097362;27;45459;-81
2021/07/06 08:40:09;;;;;;;;;3.00;1.50;;;;;19.62;56.90;100635.28;5099582;27;46152;-81
2021/07/06 08:42:37;;;;;;;;;3.00;3.00;;;;;19.62;56.58;100637.06;5089074;27;45682;-82
2021/07/06 08:45:04;;;;;;;;;4.50;3.00;;;;;19.58;56.73;100644.47;5090781;27;45613;-81
2021/07/06 08:47:30;;;;;;;;;5.00;1.00;;;;;19.55;56.66;100653.53;5078880;27;45845;-81
2021/07/06 08:49:56;;;;;;;;;5.00;2.75;;;;;19.54;56.71;100645.63;5083782;27;46380;-81
2021/07/06 08:52:22;;;;;;;;;5.00;3.50;;;;;19.56;56.52;100655.22;5099210;27;45373;-81
2021/07/06 08:54:47;;;;;;;;;1.75;0.50;;;;;19.56;57.21;100657.03;5079237;27;45353;-81
2021/07/06 08:57:13;;;;;;;;;4.00;3.00;;;;;19.60;57.58;100650.53;5088861;27;45420;-81
2021/07/06 08:59:40;;;;;;;;;4.00;3.00;;;;;19.62;57.09;100653.94;5080447;27;46080;-81
2021/07/06 09:02:07;;;;;;;;;3.25;2.00;;;;;19.65;56.73;100658.19;5086261;27;45592;-82
2021/07/06 09:04:43;;;;;;;;;2.50;2.50;;;;;19.64;57.42;100668.00;5078868;27;45440;-81
2021/07/06 09:07:08;;;;;;;;;2.75;2.00;;;;;19.68;57.94;100663.28;5078099;27;45368;-81
2021/07/06 09:09:33;;;;;;;;;3.25;2.50;;;;;19.76;57.50;100666.25;5081933;27;45519;-82
2021/07/06 09:12:02;;;;;;;;;6.00;2.00;;;;;19.77;57.35;100669.75;5098963;27;45459;-81
2021/07/06 09:14:29;;;;;;;;;6.00;2.25;;;;;19.78;57.00;100664.31;5091555;27;45435;-81
2021/07/06 09:17:08;;;;;;;;;4.00;2.00;;;;;19.86;57.05;100702.88;5089906;27;45585;-81
2021/07/06 09:19:34;;;;;;;;;3.00;3.00;;;;;19.90;57.03;100675.06;5087129;27;45482;-82
2021/07/06 09:22:24;;;;;;;;;2.25;2.25;;;;;19.97;56.75;100675.44;5077924;28;45359;-82
2021/07/06 09:25:02;;;;;;;;;3.25;3.25;;;;;20.05;57.49;100683.69;5085902;27;45439;-81
2021/07/06 09:27:34;;;;;;;;;3.75;2.00;;;;;20.08;56.72;100677.28;5088078;27;45365;-81
2021/07/06 09:30:23;;;;;;;;;4.00;3.00;;;;;20.10;56.30;100670.06;5091042;27;46441;-82
2021/07/06 09:32:48;;;;;;;;;2.00;2.00;;;;;20.16;56.14;100682.94;5090831;27;45461;-82
2021/07/06 09:35:18;;;;;;;;;3.00;2.50;;;;;20.16;55.92;100677.63;5100145;27;45335;-82
2021/07/06 09:37:51;;;;;;;;;2.00;2.00;;;;;20.24;55.68;100680.56;5082025;27;45542;-82
2021/07/06 09:40:33;;;;;;;;;4.00;3.00;;;;;20.32;55.96;100671.13;5082204;27;47045;-82
2021/07/06 09:43:17;;;;;;;;;4.00;3.00;;;;;20.38;56.63;100675.97;5090541;27;45441;-81
2021/07/06 09:46:04;;;;;;;;;5.00;2.50;;;;;20.44;55.37;100686.22;5083507;27;45440;-82
2021/07/06 09:48:31;;;;;;;;;5.50;3.50;;;;;20.51;55.70;100683.91;5082120;27;46019;-82
2021/07/06 09:51:17;;;;;;;;;0.50;0.50;;;;;20.56;55.60;100678.22;5083946;27;46474;-82
2021/07/06 09:53:48;;;;;;;;;3.50;2.25;;;;;20.58;55.69;100676.28;5083464;27;45305;-81
2021/07/06 09:56:18;;;;;;;;;4.50;3.00;;;;;20.69;55.84;100683.47;5082190;27;45929;-80
2021/07/06 09:59:00;;;;;;;;;2.00;2.00;;;;;20.77;55.56;100672.16;5088540;27;45670;-82
2021/07/06 10:01:26;;;;;;;;;2.00;2.00;;;;;20.82;54.32;100670.00;5101216;27;45369;-80
2021/07/06 10:03:53;;;;;;;;;2.00;2.00;;;;;20.91;55.83;100677.28;5101636;27;45600;-82
2021/07/06 10:06:21;;;;;;;;;2.75;2.25;;;;;20.98;55.96;100674.16;5103063;27;45389;-82
2021/07/06 10:08:48;;;;;;;;;4.00;3.00;;;;;21.02;54.03;100671.13;5102310;27;45363;-81
2021/07/06 10:11:14;;;;;;;;;2.00;2.00;;;;;21.08;54.21;100682.31;5099392;27;46362;-81
2021/07/06 10:13:39;;;;;;;;;2.00;1.25;;;;;21.10;55.42;100681.22;5100969;27;45418;-81
2021/07/06 10:16:05;;;;;;;;;1.25;1.25;;;;;21.16;53.73;100687.91;5082795;27;45377;-81
2021/07/06 10:18:32;;;;;;;;;5.00;3.00;;;;;21.19;53.56;100705.50;5100878;27;45292;-81
2021/07/06 10:20:59;;;;;;;;;3.75;1.25;;;;;21.21;53.65;100703.59;5100464;27;45692;-80
2021/07/06 10:23:24;;;;;;;;;1.00;1.00;;;;;21.22;53.76;100698.09;5099861;27;46561;-80
2021/07/06 10:25:54;;;;;;;;;3.00;2.00;;;;;21.27;53.33;100695.06;5098773;27;45454;-79
2021/07/06 10:28:21;;;;;;;;;4.00;2.50;;;;;21.33;52.59;100701.75;5089346;27;46808;-80
2021/07/06 10:30:47;;;;;;;;;4.25;1.25;;;;;21.33;52.89;100702.59;5082063;27;45675;-79
2021/07/06 10:33:30;;;;;;;;;3.25;2.00;;;;;21.38;52.21;100704.06;5082252;27;45599;-80
2021/07/06 10:35:58;;;;;;;;;2.25;1.00;;;;;21.42;52.41;100710.84;5080894;28;45338;-80
2021/07/06 10:38:26;;;;;;;;;3.25;1.25;;;;;21.50;53.09;100704.88;5100539;27;47152;-79
2021/07/06 10:40:52;;;;;;;;;1.00;1.00;;;;;21.50;51.92;100703.06;5102111;27;46491;-79
2021/07/06 10:43:42;;;;;;;;;1.00;1.00;;;;;21.56;52.32;100702.56;5082360;27;45585;-79
2021/07/06 10:46:40;;;;;;;;;2.75;1.75;;;;;21.60;52.46;100708.53;5095381;27;45431;-79
2021/07/06 10:49:15;;;;;;;;;1.00;1.00;;;;;21.61;51.82;100712.88;5073785;27;45557;-80
2021/07/06 10:51:40;;;;;;;;;2.00;2.00;;;;;21.65;52.23;100713.50;5081809;27;45387;-79
2021/07/06 10:54:19;;;;;;;;;1.00;1.00;;;;;21.55;51.55;100716.91;5081808;27;45274;-79
2021/07/06 10:56:51;;;;;;;;;2.00;1.50;;;;;21.56;52.06;100721.28;5082295;27;45341;-79
2021/07/06 10:59:20;;;;;;;;;1.25;1.25;;;;;21.59;52.00;100733.56;5081798;27;45471;-79
2021/07/06 11:01:46;;;;;;;;;2.25;2.00;;;;;21.59;51.68;100723.72;5095984;27;45516;-79
2021/07/06 11:04:32;;;;;;;;;3.75;2.00;;;;;21.59;52.58;100720.19;5101656;27;45251;-80
2021/07/06 11:06:58;;;;;;;;;3.00;3.00;;;;;21.62;51.46;100732.47;5093770;27;45408;-80
2021/07/06 11:09:29;;;;;;;;;0.75;0.75;;;;;21.61;50.87;100730.78;5089633;27;45293;-79
2021/07/06 11:12:23;;;;;;;;;2.25;1.50;;;;;21.52;51.74;100730.53;5082010;27;46345;-79
2021/07/06 11:15:16;;;;;;;;;1.25;1.25;;;;;21.43;50.84;100734.81;5084858;27;45475;-80
2021/07/06 11:17:42;;;;;;;;;2.00;2.00;;;;;21.40;50.73;100734.19;5101427;27;45438;-80
2021/07/06 11:20:10;;;;;;;;;1.00;1.00;;;;;21.41;51.65;100735.91;5088960;27;45507;-80
2021/07/06 11:22:45;;;;;;;;;1.75;1.75;;;;;21.45;53.46;100738.19;5081115;27;46929;-79
2021/07/06 11:25:19;;;;;;;;;1.00;1.00;;;;;21.46;52.40;100745.22;5097332;27;45454;-80